Terminal Aerodrome Forecast
Issued by NWS Blacksburg, VA

Current Version | Previous Version | Graphics & Text | Print | Product List | Glossary On
Versions: 1 2 3 4 5 6 7 8 9 10 11 12 13 14 15 16 17 18 19 20 21 22
000
FTUS41 KRNK 251721
TAFBLF
TAF
KBLF 251721Z 2518/2618 29009KT P6SM SCT030 SCT045
     FM260000 32003KT P6SM FEW050
     FM261100 VRB03KT 4SM BR SCT090
     FM261200 12006KT P6SM SCT050=

USA.gov is the U.S. government's official web portal to all federal, state and local government web resources and services.